createdAt,value
2017-09-20T00:01:32.937Z,101526.75
2017-09-20T00:04:03.102Z,101529.39
2017-09-20T00:06:31.483Z,101523.62
2017-09-20T00:08:59.830Z,101529.41
2017-09-20T00:11:28.645Z,101519.39
2017-09-20T00:13:57.008Z,101518.55
2017-09-20T00:16:26.284Z,101521.80
2017-09-20T00:18:55.125Z,101526.28
2017-09-20T00:21:23.539Z,101533.38
2017-09-20T00:23:51.900Z,101527.81
2017-09-20T00:26:20.612Z,101524.31
2017-09-20T00:28:50.660Z,101529.98
2017-09-20T00:31:19.879Z,101524.45
2017-09-20T00:33:48.908Z,101516.75
2017-09-20T00:36:17.535Z,101523.81
2017-09-20T00:38:45.977Z,101527.83
2017-09-20T00:41:15.441Z,101527.06
2017-09-20T00:43:43.960Z,101527.67
2017-09-20T00:46:12.353Z,101522.56
2017-09-20T00:48:41.438Z,101525.16
2017-09-20T00:51:09.792Z,101523.06
2017-09-20T00:53:38.156Z,101524.77
2017-09-20T00:56:06.821Z,101521.91
2017-09-20T00:58:35.232Z,101523.61
2017-09-20T01:01:03.595Z,101518.28
2017-09-20T01:03:33.074Z,101515.23
2017-09-20T01:06:01.464Z,101516.77
2017-09-20T01:08:29.822Z,101517.86
2017-09-20T01:10:58.752Z,101525.23
2017-09-20T01:13:27.143Z,101517.04
2017-09-20T01:15:55.505Z,101515.84
2017-09-20T01:18:25.001Z,101521.72
2017-09-20T01:21:10.997Z,101522.76
2017-09-20T01:23:39.801Z,101516.61
2017-09-20T01:26:08.145Z,101514.23
2017-09-20T01:28:38.106Z,101512.16
2017-09-20T01:31:07.111Z,101509.36
2017-09-20T01:33:35.478Z,101511.70
2017-09-20T01:36:03.852Z,101515.69
2017-09-20T01:38:32.541Z,101511.95
2017-09-20T01:41:00.900Z,101518.35
2017-09-20T01:43:29.327Z,101517.52
2017-09-20T01:45:57.963Z,101510.87
2017-09-20T01:48:26.314Z,101518.26
2017-09-20T01:50:55.433Z,101504.72
2017-09-20T01:53:24.394Z,101515.11
2017-09-20T01:55:52.748Z,101510.42
2017-09-20T01:58:21.106Z,101508.11
2017-09-20T02:00:49.836Z,101514.31
2017-09-20T02:03:18.188Z,101506.56
2017-09-20T02:05:47.061Z,101508.17
2017-09-20T02:08:16.385Z,101501.70
2017-09-20T02:10:44.983Z,101501.27
2017-09-20T02:13:14.066Z,101510.57
2017-09-20T02:15:43.211Z,101508.67
2017-09-20T02:18:11.606Z,101518.67
2017-09-20T02:20:40.744Z,101506.80
2017-09-20T02:23:09.386Z,101518.02
2017-09-20T02:25:37.710Z,101516.14
2017-09-20T02:28:06.077Z,101527.98
2017-09-20T02:30:35.706Z,101519.13
2017-09-20T02:33:04.454Z,101526.20
2017-09-20T02:35:32.790Z,101522.11
2017-09-20T02:38:02.323Z,101513.14
2017-09-20T02:40:30.673Z,101520.06
2017-09-20T02:42:59.042Z,101517.06
2017-09-20T02:45:27.910Z,101522.00
2017-09-20T02:47:58.559Z,101521.22
2017-09-20T02:50:27.011Z,101522.41
2017-09-20T02:52:56.197Z,101523.33
2017-09-20T02:55:24.568Z,101520.31
2017-09-20T02:57:52.953Z,101520.44
2017-09-20T03:00:22.216Z,101517.56
2017-09-20T03:02:51.341Z,101527.88
2017-09-20T03:05:20.706Z,101519.09
2017-09-20T03:07:49.539Z,101529.41
2017-09-20T03:10:17.985Z,101526.59
2017-09-20T03:12:46.358Z,101517.30
2017-09-20T03:15:15.077Z,101520.45
2017-09-20T03:17:43.431Z,101520.28
2017-09-20T03:20:12.827Z,101526.59
2017-09-20T03:22:41.652Z,101520.35
2017-09-20T03:25:10.031Z,101524.55
2017-09-20T03:27:38.384Z,101527.53
2017-09-20T03:30:07.924Z,101526.25
2017-09-20T03:32:37.048Z,101525.73
2017-09-20T03:35:06.313Z,101525.48
2017-09-20T03:37:35.774Z,101521.98
2017-09-20T03:40:04.141Z,101522.66
2017-09-20T03:42:32.505Z,101520.95
2017-09-20T03:45:02.449Z,101520.46
2017-09-20T03:47:31.642Z,101522.16
2017-09-20T03:50:00.298Z,101517.89
2017-09-20T03:52:29.159Z,101523.59
2017-09-20T03:54:57.516Z,101526.08
2017-09-20T03:57:26.653Z,101526.00
2017-09-20T03:59:55.284Z,101526.42
2017-09-20T04:02:24.598Z,101530.34
2017-09-20T04:04:53.721Z,101530.94
2017-09-20T04:07:22.925Z,101523.61
2017-09-20T04:09:51.265Z,101523.69
2017-09-20T04:12:19.621Z,101519.83
2017-09-20T04:14:48.365Z,101526.64
2017-09-20T04:17:16.705Z,101528.45
2017-09-20T04:19:45.063Z,101535.91
2017-09-20T04:22:14.032Z,101534.03
2017-09-20T04:24:42.386Z,101542.77
2017-09-20T04:27:11.492Z,101543.28
2017-09-20T04:29:41.336Z,101539.94
2017-09-20T04:32:09.687Z,101544.05
2017-09-20T04:34:38.094Z,101542.69
2017-09-20T04:37:06.952Z,101540.22
2017-09-20T04:39:35.289Z,101543.80
2017-09-20T04:42:03.642Z,101546.86
2017-09-20T04:44:32.905Z,101544.56
2017-09-20T04:47:02.476Z,101544.31
2017-09-20T04:49:30.839Z,101550.11
2017-09-20T04:51:59.724Z,101546.36
2017-09-20T04:54:28.105Z,101550.88
2017-09-20T04:56:56.471Z,101547.11
2017-09-20T04:59:25.151Z,101547.30
2017-09-20T05:01:53.531Z,101557.34
2017-09-20T05:04:21.921Z,101557.77
2017-09-20T05:06:50.792Z,101562.54
2017-09-20T05:09:19.152Z,101564.67
2017-09-20T05:11:48.880Z,101567.91
2017-09-20T05:14:19.126Z,101572.94
2017-09-20T05:16:47.504Z,101572.42
2017-09-20T05:19:15.855Z,101567.57
2017-09-20T05:21:45.284Z,101573.53
2017-09-20T05:24:13.653Z,101572.77
2017-09-20T05:26:42.036Z,101575.83
2017-09-20T05:29:11.534Z,101571.66
2017-09-20T05:31:40.662Z,101569.34
2017-09-20T05:34:09.851Z,101571.83
2017-09-20T05:36:38.663Z,101574.89
2017-09-20T05:39:07.026Z,101583.42
2017-09-20T05:41:35.386Z,101580.60
2017-09-20T05:44:04.146Z,101580.86
2017-09-20T05:46:32.503Z,101569.10
2017-09-20T05:49:01.638Z,101572.25
2017-09-20T05:51:30.250Z,101573.62
2017-09-20T05:53:58.611Z,101577.79
2017-09-20T05:56:26.994Z,101578.22
2017-09-20T05:58:55.707Z,101578.64
2017-09-20T06:01:24.069Z,101585.11
2017-09-20T06:03:52.422Z,101582.55
2017-09-20T06:06:21.314Z,101579.05
2017-09-20T06:08:49.658Z,101587.39
2017-09-20T06:11:18.002Z,101587.67
2017-09-20T06:13:46.674Z,101584.43
2017-09-20T06:16:15.040Z,101590.48
2017-09-20T06:18:43.402Z,101594.99
2017-09-20T06:21:13.023Z,101595.69
2017-09-20T06:23:41.367Z,101593.02
2017-09-20T06:26:09.718Z,101597.72
2017-09-20T06:28:38.372Z,101592.59
2017-09-20T06:31:06.819Z,101598.33
2017-09-20T06:33:35.943Z,101592.27
2017-09-20T06:36:04.634Z,101600.36
2017-09-20T06:38:33.013Z,101592.95
2017-09-20T06:41:01.367Z,101595.00
2017-09-20T06:43:30.369Z,101596.28
2017-09-20T06:45:59.499Z,101599.76
2017-09-20T06:48:28.653Z,101598.91
2017-09-20T06:50:58.218Z,101604.45
2017-09-20T06:53:26.558Z,101604.64
2017-09-20T06:55:54.902Z,101606.31
2017-09-20T06:58:23.522Z,101606.00
2017-09-20T07:00:52.536Z,101612.30
2017-09-20T07:03:20.870Z,101607.16
2017-09-20T07:05:49.781Z,101610.54
2017-09-20T07:08:18.224Z,101610.59
2017-09-20T07:10:46.638Z,101615.97
2017-09-20T07:13:16.866Z,101616.91
2017-09-20T07:15:45.937Z,101614.33
2017-09-20T07:18:14.312Z,101614.82
2017-09-20T07:20:43.087Z,101623.14
2017-09-20T07:23:11.445Z,101624.75
2017-09-20T07:25:39.860Z,101626.81
2017-09-20T07:28:10.249Z,101625.52
2017-09-20T07:30:38.617Z,101626.50
2017-09-20T07:33:08.340Z,101629.54
2017-09-20T07:35:37.009Z,101629.47
2017-09-20T07:38:05.371Z,101628.53
2017-09-20T07:40:34.470Z,101633.16
2017-09-20T07:43:03.125Z,101642.61
2017-09-20T07:45:31.534Z,101639.78
2017-09-20T07:48:00.649Z,101634.95
2017-09-20T07:50:29.626Z,101640.47
2017-09-20T07:52:57.976Z,101633.66
2017-09-20T07:55:26.319Z,101635.86
2017-09-20T07:57:55.914Z,101637.47
2017-09-20T08:00:24.250Z,101643.41
2017-09-20T08:02:53.359Z,101640.36
2017-09-20T08:05:22.840Z,101648.70
2017-09-20T08:07:51.207Z,101642.78
2017-09-20T08:10:19.542Z,101641.66
2017-09-20T08:12:48.591Z,101641.37
2017-09-20T08:15:16.967Z,101637.37
2017-09-20T08:17:46.074Z,101635.70
2017-09-20T08:20:15.765Z,101632.59
2017-09-20T08:22:44.112Z,101632.62
2017-09-20T08:25:12.479Z,101632.86
2017-09-20T08:27:41.587Z,101628.70
2017-09-20T08:30:09.918Z,101633.53
2017-09-20T08:32:39.256Z,101627.58
2017-09-20T08:35:08.070Z,101628.39
2017-09-20T08:37:36.426Z,101626.46
2017-09-20T08:40:04.780Z,101634.67
2017-09-20T08:42:34.283Z,101632.25
2017-09-20T08:45:02.642Z,101629.32
2017-09-20T08:47:30.987Z,101634.11
2017-09-20T08:49:59.723Z,101630.37
2017-09-20T08:52:28.070Z,101636.77
2017-09-20T08:54:57.374Z,101641.93
2017-09-20T08:57:26.626Z,101647.09
2017-09-20T08:59:55.662Z,101643.71
2017-09-20T09:02:24.856Z,101644.70
2017-09-20T09:07:51.048Z,101648.98
2017-09-20T09:10:20.172Z,101658.08
2017-09-20T09:12:48.525Z,101662.59
2017-09-20T09:15:18.565Z,101656.23
2017-09-20T09:17:46.902Z,101663.24
2017-09-20T09:20:15.257Z,101659.64
2017-09-20T09:22:44.409Z,101651.00
2017-09-20T09:25:13.674Z,101651.09
2017-09-20T09:27:42.016Z,101653.38
2017-09-20T09:30:10.645Z,101648.00
2017-09-20T09:32:39.072Z,101644.55
2017-09-20T09:35:07.394Z,101654.44
2017-09-20T09:37:36.243Z,101642.52
2017-09-20T09:40:05.252Z,101648.17
2017-09-20T09:42:33.862Z,101650.41
2017-09-20T09:45:02.794Z,101653.91
2017-09-20T09:47:31.147Z,101657.61
2017-09-20T09:49:59.502Z,101662.66
2017-09-20T09:52:28.230Z,101655.30
2017-09-20T09:54:56.570Z,101653.39
2017-09-20T09:57:24.929Z,101656.48
2017-09-20T09:59:53.694Z,101658.98
2017-09-20T10:02:22.037Z,101652.86
2017-09-20T10:04:51.201Z,101653.83
2017-09-20T10:07:19.957Z,101660.19
2017-09-20T10:09:48.341Z,101649.77
2017-09-20T10:12:16.681Z,101656.91
2017-09-20T10:14:45.431Z,101662.52
2017-09-20T10:17:13.780Z,101660.13
2017-09-20T10:19:42.962Z,101664.63
2017-09-20T10:22:12.283Z,101661.02
2017-09-20T10:24:40.621Z,101661.05
2017-09-20T10:27:09.743Z,101651.60
2017-09-20T10:29:38.498Z,101657.84
2017-09-20T10:32:06.875Z,101658.04
2017-09-20T10:34:36.009Z,101655.59
2017-09-20T10:37:04.791Z,101652.52
2017-09-20T10:39:33.146Z,101653.87
2017-09-20T10:42:02.273Z,101654.34
2017-09-20T10:44:32.090Z,101658.68
2017-09-20T10:47:00.426Z,101660.82
2017-09-20T10:49:28.768Z,101657.42
2017-09-20T10:51:57.479Z,101654.31
2017-09-20T10:54:25.833Z,101656.26
2017-09-20T10:56:54.171Z,101656.37
2017-09-20T10:59:23.824Z,101655.18
2017-09-20T11:01:52.158Z,101660.28
2017-09-20T11:04:21.303Z,101655.20
2017-09-20T11:06:50.055Z,101651.92
2017-09-20T11:09:18.910Z,101653.27
2017-09-20T11:11:47.257Z,101656.31
2017-09-20T11:14:16.112Z,101645.78
2017-09-20T11:16:44.458Z,101649.92
2017-09-20T11:19:13.639Z,101650.19
2017-09-20T11:21:42.278Z,101654.77
2017-09-20T11:24:10.637Z,101646.75
2017-09-20T11:26:38.977Z,101659.80
2017-09-20T11:29:07.818Z,101657.20
2017-09-20T11:31:36.176Z,101650.02
2017-09-20T11:34:04.536Z,101650.33
2017-09-20T11:36:33.276Z,101651.91
2017-09-20T11:39:01.831Z,101652.16
2017-09-20T11:41:30.389Z,101649.06
2017-09-20T11:43:59.267Z,101648.38
2017-09-20T11:46:27.736Z,101643.40
2017-09-20T11:48:56.884Z,101647.05
2017-09-20T11:51:26.116Z,101655.91
2017-09-20T11:53:55.244Z,101651.09
2017-09-20T11:56:24.001Z,101661.29
2017-09-20T11:58:53.079Z,101656.22
2017-09-20T12:01:21.436Z,101650.81
2017-09-20T12:03:49.802Z,101654.64
2017-09-20T12:06:18.549Z,101645.73
2017-09-20T12:08:46.906Z,101643.17
2017-09-20T12:11:16.024Z,101645.41
2017-09-20T12:13:45.213Z,101650.20
2017-09-20T12:16:13.573Z,101647.07
2017-09-20T12:18:42.687Z,101646.59
2017-09-20T12:21:12.095Z,101641.14
2017-09-20T12:23:40.436Z,101640.70
2017-09-20T12:26:08.778Z,101648.16
2017-09-20T12:28:37.770Z,101647.45
2017-09-20T12:31:06.118Z,101644.42
2017-09-20T12:33:34.912Z,101642.18
2017-09-20T12:36:03.816Z,101635.23
2017-09-20T12:38:32.172Z,101650.37
2017-09-20T12:41:01.342Z,101642.98
2017-09-20T12:43:30.063Z,101651.53
2017-09-20T12:46:00.031Z,101639.49
2017-09-20T12:48:29.267Z,101642.38
2017-09-20T12:50:58.799Z,101637.08
2017-09-20T12:53:27.216Z,101634.98
2017-09-20T12:55:55.575Z,101640.53
2017-09-20T12:58:24.423Z,101638.61
2017-09-20T13:00:52.822Z,101653.44
2017-09-20T13:03:21.176Z,101644.69
2017-09-20T13:05:50.088Z,101649.47
2017-09-20T13:08:19.234Z,101652.75
2017-09-20T13:10:47.601Z,101655.50
2017-09-20T13:13:16.231Z,101660.72
2017-09-20T13:15:45.661Z,101651.11
2017-09-20T13:18:14.014Z,101649.72
2017-09-20T13:20:43.883Z,101652.02
2017-09-20T13:23:12.294Z,101648.44
2017-09-20T13:25:40.672Z,101643.75
2017-09-20T13:28:09.295Z,101649.63
2017-09-20T13:30:37.646Z,101651.81
2017-09-20T13:33:06.013Z,101655.24
2017-09-20T13:35:35.099Z,101661.38
2017-09-20T13:38:03.426Z,101658.91
2017-09-20T13:40:32.364Z,101660.02
2017-09-20T13:43:01.143Z,101661.66
2017-09-20T13:45:30.349Z,101651.84
2017-09-20T13:47:58.709Z,101661.12
2017-09-20T13:50:27.689Z,101666.08
2017-09-20T13:52:56.014Z,101658.03
2017-09-20T13:55:24.345Z,101653.58
2017-09-20T13:57:52.984Z,101656.23
2017-09-20T14:00:21.354Z,101654.05
2017-09-20T14:02:49.721Z,101650.55
2017-09-20T14:05:18.779Z,101653.72
2017-09-20T14:07:49.518Z,101660.17
2017-09-20T14:10:17.891Z,101662.33
2017-09-20T14:12:46.682Z,101661.42
2017-09-20T14:15:15.063Z,101661.22
2017-09-20T14:17:43.398Z,101664.03
2017-09-20T14:20:12.745Z,101665.34
2017-09-20T14:22:41.633Z,101669.91
2017-09-20T14:25:10.912Z,101675.95
2017-09-20T14:27:39.720Z,101677.13
2017-09-20T14:30:08.067Z,101669.06
2017-09-20T14:32:36.395Z,101674.20
2017-09-20T14:35:05.087Z,101672.25
2017-09-20T14:37:33.432Z,101679.91
2017-09-20T14:40:02.540Z,101681.47
2017-09-20T14:42:31.312Z,101681.07
2017-09-20T14:44:59.652Z,101682.86
2017-09-20T14:47:27.997Z,101678.44
2017-09-20T14:49:56.964Z,101676.63
2017-09-20T14:52:25.322Z,101677.48
2017-09-20T14:54:54.455Z,101681.91
2017-09-20T14:57:23.204Z,101682.65
2017-09-20T14:59:52.458Z,101688.45
2017-09-20T15:02:20.794Z,101681.55
2017-09-20T15:04:49.451Z,101686.88
2017-09-20T15:07:17.803Z,101691.88
2017-09-20T15:09:46.143Z,101695.52
2017-09-20T15:12:16.167Z,101699.84
2017-09-20T15:14:45.284Z,101694.59
2017-09-20T15:17:13.644Z,101698.55
2017-09-20T15:19:42.651Z,101696.52
2017-09-20T15:22:11.021Z,101703.14
2017-09-20T15:24:39.379Z,101699.47
2017-09-20T15:27:08.011Z,101704.58
2017-09-20T15:29:36.373Z,101713.38
2017-09-20T15:32:04.762Z,101704.45
2017-09-20T15:34:33.738Z,101703.73
2017-09-20T15:37:02.093Z,101703.85
2017-09-20T15:39:30.422Z,101712.02
2017-09-20T15:41:59.102Z,101708.94
2017-09-20T15:44:27.468Z,101713.25
2017-09-20T15:46:55.838Z,101709.72
2017-09-20T15:49:24.482Z,101714.20
2017-09-20T15:51:52.856Z,101715.61
2017-09-20T15:54:21.210Z,101713.22
2017-09-20T15:56:50.066Z,101712.14
2017-09-20T15:59:19.239Z,101713.52
2017-09-20T16:01:47.695Z,101710.57
2017-09-20T16:04:16.345Z,101716.30
2017-09-20T16:06:44.721Z,101709.92
2017-09-20T16:09:13.291Z,101713.78
2017-09-20T16:11:42.061Z,101715.07
2017-09-20T16:14:10.439Z,101714.23
2017-09-20T16:16:38.831Z,101710.96
2017-09-20T16:19:08.500Z,101722.45
2017-09-20T16:21:36.884Z,101719.43
2017-09-20T16:24:05.228Z,101721.84
2017-09-20T16:26:33.989Z,101722.56
2017-09-20T16:29:03.117Z,101715.83
2017-09-20T16:31:31.573Z,101716.66
2017-09-20T16:34:01.850Z,101720.50
2017-09-20T16:36:30.238Z,101718.83
2017-09-20T16:38:58.614Z,101726.27
2017-09-20T16:41:27.492Z,101721.08
2017-09-20T16:43:55.863Z,101726.22
2017-09-20T16:46:24.277Z,101730.93
2017-09-20T16:48:53.940Z,101736.01
2017-09-20T16:51:23.039Z,101736.26
2017-09-20T16:53:51.411Z,101726.45
2017-09-20T16:56:20.908Z,101724.06
2017-09-20T16:58:51.010Z,101732.30
2017-09-20T17:01:20.182Z,101738.91
2017-09-20T17:03:49.036Z,101741.52
2017-09-20T17:06:17.431Z,101743.21
2017-09-20T17:08:45.875Z,101744.10
2017-09-20T17:11:15.484Z,101742.48
2017-09-20T17:13:44.605Z,101745.12
2017-09-20T17:16:12.970Z,101758.30
2017-09-20T17:18:41.693Z,101759.77
2017-09-20T17:21:10.188Z,101761.19
2017-09-20T17:23:38.747Z,101767.56
2017-09-20T17:26:07.670Z,101770.77
2017-09-20T17:28:36.038Z,101768.61
2017-09-20T17:33:32.363Z,101776.98
2017-09-20T17:36:00.757Z,101772.98
2017-09-20T17:38:29.150Z,101780.13
2017-09-20T17:40:57.801Z,101779.70
2017-09-20T17:43:26.297Z,101782.41
2017-09-20T17:45:54.660Z,101786.70
2017-09-20T17:48:23.451Z,101788.22
2017-09-20T17:50:52.625Z,101804.89
2017-09-20T17:53:21.031Z,101795.56
2017-09-20T17:55:49.839Z,101798.15
2017-09-20T17:58:18.213Z,101801.98
2017-09-20T18:00:46.593Z,101801.83
2017-09-20T18:03:15.509Z,101805.75
2017-09-20T18:05:43.905Z,101807.78
2017-09-20T18:08:12.724Z,101808.09
2017-09-20T18:10:41.532Z,101807.61
2017-09-20T18:13:09.986Z,101800.89
2017-09-20T18:15:39.264Z,101805.41
2017-09-20T18:18:07.954Z,101809.02
2017-09-20T18:20:36.451Z,101807.49
2017-09-20T18:23:05.097Z,101809.95
2017-09-20T18:25:33.987Z,101814.29
2017-09-20T18:28:02.500Z,101813.98
2017-09-20T18:30:31.048Z,101815.23
2017-09-20T18:33:00.132Z,101819.09
2017-09-20T18:35:28.594Z,101812.02
2017-09-20T18:37:57.040Z,101810.15
2017-09-20T18:40:26.561Z,101814.60
2017-09-20T18:42:55.749Z,101817.56
2017-09-20T18:45:24.982Z,101815.45
2017-09-20T18:47:53.693Z,101822.53
2017-09-20T18:50:22.114Z,101820.73
2017-09-20T18:52:51.328Z,101826.42
2017-09-20T18:55:20.793Z,101824.59
2017-09-20T18:57:49.243Z,101826.98
2017-09-20T19:00:17.695Z,101826.31
2017-09-20T19:02:46.502Z,101818.55
2017-09-20T19:05:14.905Z,101825.15
2017-09-20T19:07:43.493Z,101821.28
2017-09-20T19:10:12.182Z,101818.66
2017-09-20T19:12:41.326Z,101824.56
2017-09-20T19:15:10.481Z,101822.45
2017-09-20T19:17:39.363Z,101830.11
2017-09-20T19:20:08.527Z,101827.61
2017-09-20T19:22:36.934Z,101828.52
2017-09-20T19:25:05.664Z,101830.03
2017-09-20T19:27:34.828Z,101829.31
2017-09-20T19:30:03.215Z,101826.10
2017-09-20T19:32:32.183Z,101829.77
2017-09-20T19:35:00.558Z,101832.23
2017-09-20T19:37:28.978Z,101830.26
2017-09-20T19:39:57.731Z,101832.14
2017-09-20T19:42:26.159Z,101826.70
2017-09-20T19:44:58.678Z,101830.09
2017-09-20T19:47:27.082Z,101824.66
2017-09-20T19:49:55.439Z,101839.30
2017-09-20T19:52:24.228Z,101832.08
2017-09-20T19:54:52.617Z,101828.23
2017-09-20T19:57:21.007Z,101831.33
2017-09-20T19:59:49.982Z,101835.31
2017-09-20T20:02:18.344Z,101839.47
2017-09-20T20:04:47.892Z,101829.77
2017-09-20T20:07:16.567Z,101845.56
2017-09-20T20:09:45.013Z,101837.03
2017-09-20T20:12:13.397Z,101832.27
2017-09-20T20:14:43.153Z,101833.34
2017-09-20T20:17:11.550Z,101827.91
2017-09-20T20:19:39.956Z,101829.87
2017-09-20T20:22:09.566Z,101832.98
2017-09-20T20:24:37.965Z,101834.69
2017-09-20T20:27:06.381Z,101824.05
2017-09-20T20:29:34.936Z,101829.28
2017-09-20T20:32:03.330Z,101831.77
2017-09-20T20:34:33.144Z,101830.71
2017-09-20T20:37:01.730Z,101833.45
2017-09-20T20:39:30.112Z,101832.65
2017-09-20T20:41:58.485Z,101833.98
2017-09-20T20:44:27.247Z,101834.64
2017-09-20T20:46:55.674Z,101839.71
2017-09-20T20:49:24.050Z,101839.62
2017-09-20T20:51:52.837Z,101838.67
2017-09-20T20:54:21.302Z,101833.03
2017-09-20T20:56:49.697Z,101836.81
2017-09-20T20:59:19.142Z,101835.43
2017-09-20T21:01:48.308Z,101832.84
2017-09-20T21:04:16.727Z,101832.89
2017-09-20T21:06:46.107Z,101828.89
2017-09-20T21:09:14.512Z,101832.80
2017-09-20T21:11:42.902Z,101834.23
2017-09-20T21:14:12.462Z,101841.04
2017-09-20T21:16:40.939Z,101836.42
2017-09-20T21:19:10.117Z,101841.15
2017-09-20T21:21:38.998Z,101847.56
2017-09-20T21:24:18.452Z,101843.78
2017-09-20T21:26:47.246Z,101838.92
2017-09-20T21:29:17.403Z,101837.79
2017-09-20T21:31:45.846Z,101836.95
2017-09-20T21:34:14.514Z,101832.50
2017-09-20T21:36:43.053Z,101835.16
2017-09-20T21:39:11.437Z,101831.73
2017-09-20T21:41:40.879Z,101838.39
2017-09-20T21:44:09.296Z,101844.04
2017-09-20T21:46:37.703Z,101852.07
2017-09-20T21:49:07.866Z,101848.22
2017-09-20T21:51:36.841Z,101842.50
2017-09-20T21:54:05.220Z,101844.45
2017-09-20T21:56:34.010Z,101843.78
2017-09-20T21:59:02.419Z,101840.03
2017-09-20T22:01:31.064Z,101840.39
2017-09-20T22:03:59.776Z,101838.58
2017-09-20T22:06:28.142Z,101834.25
2017-09-20T22:08:56.544Z,101838.19
2017-09-20T22:11:25.978Z,101839.28
2017-09-20T22:13:54.370Z,101835.86
2017-09-20T22:16:40.734Z,101836.42
2017-09-20T22:19:27.334Z,101842.82
2017-09-20T22:22:13.612Z,101843.02
2017-09-20T22:24:59.653Z,101846.70
2017-09-20T22:27:30.781Z,101840.31
2017-09-20T22:29:59.170Z,101841.42
2017-09-20T22:32:27.699Z,101853.03
2017-09-20T22:34:56.356Z,101848.25
2017-09-20T22:37:25.693Z,101847.83
2017-09-20T22:39:54.157Z,101855.41
2017-09-20T22:42:22.932Z,101854.47
2017-09-20T22:44:52.151Z,101855.77
2017-09-20T22:47:20.562Z,101853.03
2017-09-20T22:49:49.535Z,101856.44
2017-09-20T22:52:17.970Z,101850.90
2017-09-20T22:54:47.165Z,101850.05
2017-09-20T22:57:16.001Z,101847.91
2017-09-20T22:59:44.393Z,101841.23
2017-09-20T23:02:12.877Z,101861.98
2017-09-20T23:04:41.659Z,101853.17
2017-09-20T23:07:10.626Z,101858.69
2017-09-20T23:09:39.789Z,101852.20
2017-09-20T23:12:08.862Z,101849.48
2017-09-20T23:14:37.306Z,101851.44
2017-09-20T23:17:05.778Z,101861.77
2017-09-20T23:19:35.429Z,101864.07
2017-09-20T23:22:03.875Z,101862.79
2017-09-20T23:24:32.307Z,101869.80
2017-09-20T23:27:00.968Z,101869.31
2017-09-20T23:29:29.428Z,101878.19
2017-09-20T23:31:58.632Z,101880.08
2017-09-20T23:34:27.507Z,101873.75
2017-09-20T23:36:56.805Z,101871.46
2017-09-20T23:39:26.742Z,101878.47
2017-09-20T23:41:55.383Z,101880.35
2017-09-20T23:44:23.774Z,101883.67
2017-09-20T23:46:52.206Z,101878.98
2017-09-20T23:49:21.460Z,101873.02
2017-09-20T23:51:49.894Z,101876.25
2017-09-20T23:54:18.326Z,101878.64
2017-09-20T23:56:48.170Z,101871.56
2017-09-20T23:59:16.602Z,101871.05
